createdAt,value
2023-01-07T00:01:44.361Z,4.93
2023-01-07T00:04:13.651Z,5.03
2023-01-07T00:06:43.699Z,5.10
2023-01-07T00:09:14.654Z,5.20
2023-01-07T00:11:43.151Z,5.20
2023-01-07T00:14:13.766Z,4.75
2023-01-07T00:16:42.828Z,5.28
2023-01-07T00:19:14.277Z,5.10
2023-01-07T00:21:42.341Z,5.55
2023-01-07T00:24:11.754Z,5.20
2023-01-07T00:26:40.282Z,5.70
2023-01-07T00:29:08.588Z,5.38
2023-01-07T00:31:40.821Z,4.97
2023-01-07T00:34:09.899Z,5.95
2023-01-07T00:36:40.835Z,5.97
2023-01-07T00:39:17.063Z,5.70
2023-01-07T00:42:06.508Z,5.90
2023-01-07T00:44:34.631Z,5.97
2023-01-07T00:47:03.976Z,5.18
2023-01-07T00:49:34.560Z,5.47
2023-01-07T00:52:12.152Z,6.72
2023-01-07T00:54:39.946Z,7.00
2023-01-07T00:57:10.191Z,5.90
2023-01-07T00:59:37.952Z,6.15
2023-01-07T01:02:07.131Z,7.47
2023-01-07T01:04:35.047Z,9.45
2023-01-07T01:07:02.800Z,9.40
2023-01-07T01:09:30.540Z,10.43
2023-01-07T01:11:58.274Z,10.07
2023-01-07T01:14:25.988Z,10.77
2023-01-07T01:16:53.724Z,10.65
2023-01-07T01:19:22.807Z,10.18
2023-01-07T01:21:50.479Z,11.35
2023-01-07T01:24:18.197Z,9.60
2023-01-07T01:26:46.296Z,10.00
2023-01-07T01:29:13.961Z,9.80
2023-01-07T01:31:41.816Z,9.07
2023-01-07T01:34:09.538Z,7.45
2023-01-07T01:36:39.142Z,7.13
2023-01-07T01:39:06.866Z,8.27
2023-01-07T01:41:34.979Z,7.38
2023-01-07T01:44:02.906Z,6.25
2023-01-07T01:46:35.966Z,7.35
2023-01-07T01:49:06.874Z,7.70
2023-01-07T01:51:41.093Z,6.55
2023-01-07T01:54:14.384Z,6.30
2023-01-07T01:56:45.628Z,6.80
2023-01-07T01:59:19.330Z,7.60
2023-01-07T02:01:47.308Z,7.07
2023-01-07T02:04:18.721Z,8.45
2023-01-07T02:06:51.813Z,7.82
2023-01-07T02:09:19.501Z,6.50
2023-01-07T02:11:57.729Z,7.90
2023-01-07T02:14:42.068Z,7.03
2023-01-07T02:17:17.478Z,9.32
2023-01-07T02:20:14.677Z,7.82
2023-01-07T02:23:20.030Z,8.80
2023-01-07T02:26:15.624Z,10.15
2023-01-07T02:29:21.512Z,11.95
2023-01-07T02:32:22.128Z,11.27
2023-01-07T02:35:03.000Z,12.23
2023-01-07T02:37:44.116Z,9.07
2023-01-07T02:40:20.607Z,8.35
2023-01-07T02:42:59.596Z,7.32
2023-01-07T02:45:30.285Z,6.63
2023-01-07T02:48:03.324Z,6.47
2023-01-07T02:50:31.002Z,6.07
2023-01-07T02:52:58.647Z,5.65
2023-01-07T02:55:36.946Z,5.00
2023-01-07T02:58:23.995Z,4.57
2023-01-07T03:01:27.282Z,4.65
2023-01-07T03:04:12.586Z,4.32
2023-01-07T03:06:57.140Z,4.35
2023-01-07T03:09:33.697Z,4.57
2023-01-07T03:12:08.940Z,4.25
2023-01-07T03:14:45.125Z,4.50
2023-01-07T03:17:18.134Z,4.68
2023-01-07T03:19:50.007Z,5.07
2023-01-07T03:22:21.678Z,4.70
2023-01-07T03:24:51.691Z,5.10
2023-01-07T03:27:23.085Z,4.60
2023-01-07T03:29:53.050Z,5.57
2023-01-07T03:32:26.857Z,5.15
2023-01-07T03:34:59.767Z,4.90
2023-01-07T03:37:28.722Z,3.97
2023-01-07T03:39:56.513Z,3.72
2023-01-07T03:42:40.313Z,2.65
2023-01-07T03:45:12.499Z,2.90
2023-01-07T03:47:44.492Z,2.20
2023-01-07T03:50:13.850Z,2.15
2023-01-07T03:52:41.547Z,2.20
2023-01-07T03:55:10.510Z,2.25
2023-01-07T03:57:39.065Z,1.90
2023-01-07T04:00:09.371Z,1.83
2023-01-07T04:02:37.091Z,2.10
2023-01-07T04:05:05.395Z,1.75
2023-01-07T04:07:34.519Z,1.50
2023-01-07T04:10:02.392Z,1.90
2023-01-07T04:12:30.086Z,1.90
2023-01-07T04:14:59.232Z,1.63
2023-01-07T04:17:27.098Z,1.80
2023-01-07T04:19:54.822Z,2.30
2023-01-07T04:22:22.699Z,1.70
2023-01-07T04:24:51.882Z,1.70
2023-01-07T04:27:19.612Z,1.50
2023-01-07T04:29:47.279Z,1.63
2023-01-07T04:32:14.988Z,1.70
2023-01-07T04:34:42.643Z,1.50
2023-01-07T04:37:10.375Z,1.52
2023-01-07T04:39:38.121Z,1.65
2023-01-07T04:42:07.622Z,1.90
2023-01-07T04:44:35.339Z,1.63
2023-01-07T04:47:03.052Z,1.83
2023-01-07T04:49:30.724Z,1.95
2023-01-07T04:51:58.594Z,1.77
2023-01-07T04:54:26.302Z,2.00
2023-01-07T04:56:53.976Z,1.80
2023-01-07T04:59:23.222Z,1.92
2023-01-07T05:01:51.043Z,1.60
2023-01-07T05:04:19.120Z,1.80
2023-01-07T05:06:46.847Z,1.70
2023-01-07T05:09:14.679Z,2.13
2023-01-07T05:11:42.409Z,2.03
2023-01-07T05:14:12.226Z,1.67
2023-01-07T05:16:41.346Z,2.10
2023-01-07T05:19:10.571Z,1.63
2023-01-07T05:21:38.342Z,2.00
2023-01-07T05:24:06.294Z,1.90
2023-01-07T05:26:33.986Z,1.98
2023-01-07T05:29:01.667Z,2.03
2023-01-07T05:31:29.357Z,1.80
2023-01-07T05:33:58.471Z,2.45
2023-01-07T05:36:26.214Z,2.42
2023-01-07T05:38:53.926Z,2.08
2023-01-07T05:41:21.572Z,2.15
2023-01-07T05:43:49.446Z,2.25
2023-01-07T05:46:17.801Z,2.50
2023-01-07T05:48:45.532Z,2.33
2023-01-07T05:51:14.609Z,2.33
2023-01-07T05:53:42.366Z,2.40
2023-01-07T05:56:10.055Z,2.55
2023-01-07T05:58:37.791Z,2.40
2023-01-07T06:01:05.713Z,2.28
2023-01-07T06:03:33.454Z,2.60
2023-01-07T06:06:07.021Z,2.10
2023-01-07T06:08:36.492Z,2.22
2023-01-07T06:11:05.393Z,2.40
2023-01-07T06:13:33.458Z,2.40
2023-01-07T06:16:01.897Z,2.22
2023-01-07T06:18:29.671Z,2.53
2023-01-07T06:20:57.400Z,2.50
2023-01-07T06:23:25.452Z,2.65
2023-01-07T06:25:54.580Z,2.40
2023-01-07T06:28:22.240Z,2.30
2023-01-07T06:30:50.000Z,2.50
2023-01-07T06:33:18.013Z,2.50
2023-01-07T06:35:46.884Z,2.55
2023-01-07T06:38:14.607Z,2.20
2023-01-07T06:40:44.587Z,2.15
2023-01-07T06:43:13.908Z,2.40
2023-01-07T06:45:41.789Z,2.60
2023-01-07T06:48:09.518Z,2.38
2023-01-07T06:50:37.204Z,2.70
2023-01-07T06:53:05.199Z,2.40
2023-01-07T06:55:32.875Z,2.20
2023-01-07T06:58:00.720Z,2.17
2023-01-07T07:00:30.412Z,2.30
2023-01-07T07:02:58.256Z,2.50
2023-01-07T07:05:26.333Z,3.00
2023-01-07T07:07:54.045Z,2.33
2023-01-07T07:10:21.794Z,2.60
2023-01-07T07:12:49.573Z,2.47
2023-01-07T07:15:17.391Z,2.50
2023-01-07T07:17:46.863Z,2.40
2023-01-07T07:20:14.530Z,2.50
2023-01-07T07:22:45.839Z,2.50
2023-01-07T07:25:13.563Z,2.40
2023-01-07T07:27:41.276Z,2.33
2023-01-07T07:30:09.979Z,2.20
2023-01-07T07:32:37.679Z,2.22
2023-01-07T07:35:07.895Z,2.40
2023-01-07T07:37:35.625Z,2.40
2023-01-07T07:40:03.441Z,2.40
2023-01-07T07:42:31.173Z,2.10
2023-01-07T07:44:58.895Z,2.33
2023-01-07T07:47:26.624Z,2.25
2023-01-07T07:49:54.536Z,2.25
2023-01-07T07:52:23.661Z,2.58
2023-01-07T07:54:51.412Z,2.40
2023-01-07T07:57:19.114Z,2.30
2023-01-07T07:59:47.169Z,2.30
2023-01-07T08:02:15.081Z,2.25
2023-01-07T08:04:42.833Z,2.30
2023-01-07T08:07:12.688Z,2.30
2023-01-07T08:09:42.121Z,2.50
2023-01-07T08:12:09.886Z,2.40
2023-01-07T08:14:37.614Z,3.35
2023-01-07T08:17:05.330Z,2.30
2023-01-07T08:19:33.081Z,2.35
2023-01-07T08:22:00.896Z,2.53
2023-01-07T08:24:28.615Z,2.65
2023-01-07T08:26:57.669Z,2.55
2023-01-07T08:29:27.797Z,2.65
2023-01-07T08:54:39.146Z,2.60
2023-01-07T08:57:07.031Z,2.58
2023-01-07T08:59:34.850Z,3.20
2023-01-07T09:02:02.656Z,3.15
2023-01-07T09:04:31.067Z,6.03
2023-01-07T09:06:58.762Z,5.40
2023-01-07T09:09:26.497Z,5.85
2023-01-07T09:11:55.636Z,5.80
2023-01-07T09:14:23.367Z,4.80
2023-01-07T09:16:51.142Z,3.70
2023-01-07T09:19:19.006Z,3.22
2023-01-07T09:21:47.289Z,3.85
2023-01-07T09:24:15.088Z,4.20
2023-01-07T09:26:43.599Z,3.80
2023-01-07T09:29:12.897Z,3.00
2023-01-07T09:31:40.869Z,2.40
2023-01-07T09:34:08.634Z,2.17
2023-01-07T09:36:36.545Z,2.00
2023-01-07T09:39:04.593Z,1.98
2023-01-07T09:41:41.507Z,2.60
2023-01-07T09:44:19.645Z,1.95
2023-01-07T09:46:51.847Z,1.67
2023-01-07T09:49:20.171Z,1.70
2023-01-07T09:51:52.805Z,1.98
2023-01-07T09:54:30.555Z,1.60
2023-01-07T09:56:58.556Z,1.80
2023-01-07T09:59:28.147Z,1.83
2023-01-07T10:02:04.322Z,1.95
2023-01-07T10:04:39.714Z,2.00
2023-01-07T10:07:22.470Z,1.58
2023-01-07T10:10:02.076Z,1.52
2023-01-07T10:12:38.559Z,1.70
2023-01-07T10:15:23.259Z,1.50
2023-01-07T10:18:06.900Z,1.80
2023-01-07T10:20:45.696Z,1.90
2023-01-07T10:23:17.053Z,1.90
2023-01-07T10:25:49.539Z,1.80
2023-01-07T10:30:52.261Z,1.50
2023-01-07T10:33:25.084Z,1.77
2023-01-07T10:36:02.692Z,1.67
2023-01-07T10:38:35.534Z,1.60
2023-01-07T10:41:08.507Z,1.73
2023-01-07T10:43:50.086Z,1.67
2023-01-07T10:46:31.848Z,1.65
2023-01-07T10:49:14.744Z,1.50
2023-01-07T10:52:03.682Z,1.60
2023-01-07T10:55:03.005Z,1.63
2023-01-07T10:57:32.788Z,1.65
2023-01-07T11:00:04.753Z,1.85
2023-01-07T11:02:33.965Z,1.80
2023-01-07T11:05:02.130Z,1.70
2023-01-07T11:07:40.747Z,1.80
2023-01-07T11:10:13.970Z,1.95
2023-01-07T11:12:47.556Z,1.85
2023-01-07T11:15:20.195Z,1.80
2023-01-07T11:17:53.731Z,1.92
2023-01-07T11:20:43.372Z,1.88
2023-01-07T11:23:29.497Z,1.90
2023-01-07T11:26:12.060Z,2.08
2023-01-07T11:28:48.547Z,1.90
2023-01-07T11:31:16.484Z,2.00
2023-01-07T11:34:01.616Z,2.13
2023-01-07T11:36:42.251Z,2.00
2023-01-07T11:39:12.597Z,2.10
2023-01-07T11:41:54.130Z,2.40
2023-01-07T11:44:24.466Z,1.90
2023-01-07T11:46:53.495Z,2.30
2023-01-07T11:49:28.831Z,2.50
2023-01-07T11:51:57.611Z,2.58
2023-01-07T11:54:27.654Z,2.63
2023-01-07T11:57:13.096Z,2.72
2023-01-07T11:59:41.029Z,2.78
2023-01-07T12:02:25.570Z,3.05
2023-01-07T12:05:18.992Z,2.70
2023-01-07T12:07:47.811Z,2.60
2023-01-07T12:10:31.161Z,3.20
2023-01-07T12:13:00.698Z,3.15
2023-01-07T12:15:31.763Z,3.25
2023-01-07T12:18:28.931Z,3.70
2023-01-07T12:21:39.733Z,15.35
2023-01-07T12:24:46.512Z,5.53
2023-01-07T12:27:23.769Z,14.95
2023-01-07T12:30:03.644Z,3.70
2023-01-07T12:32:47.464Z,8.38
2023-01-07T12:35:19.401Z,4.00
2023-01-07T12:37:53.420Z,2.78
2023-01-07T12:40:32.453Z,4.00
2023-01-07T12:43:05.765Z,3.50
2023-01-07T12:45:41.101Z,4.20
2023-01-07T12:48:17.600Z,2.05
2023-01-07T12:50:49.036Z,1.98
2023-01-07T12:53:22.274Z,2.60
2023-01-07T12:55:55.745Z,2.15
2023-01-07T12:58:36.793Z,3.10
2023-01-07T13:01:13.049Z,2.05
2023-01-07T13:03:50.755Z,2.20
2023-01-07T13:06:27.886Z,2.85
2023-01-07T13:09:03.445Z,1.90
2023-01-07T13:11:53.685Z,2.13
2023-01-07T13:14:28.509Z,1.60
2023-01-07T13:17:02.739Z,2.28
2023-01-07T13:19:32.236Z,3.08
2023-01-07T13:22:00.447Z,3.83
2023-01-07T13:24:55.694Z,2.28
2023-01-07T13:27:34.165Z,5.57
2023-01-07T13:30:25.151Z,2.53
2023-01-07T13:33:04.423Z,6.85
2023-01-07T13:35:46.844Z,6.55
2023-01-07T13:38:35.427Z,3.15
2023-01-07T13:41:18.906Z,3.95
2023-01-07T13:44:05.548Z,4.25
2023-01-07T13:46:36.341Z,7.15
2023-01-07T13:49:04.485Z,7.60
2023-01-07T13:51:37.105Z,13.82
2023-01-07T13:54:05.963Z,2.30
2023-01-07T13:56:43.514Z,2.20
2023-01-07T13:59:48.019Z,2.00
2023-01-07T14:02:21.247Z,2.13
2023-01-07T14:04:51.619Z,2.10
2023-01-07T14:07:20.947Z,2.20
2023-01-07T14:09:48.990Z,2.90
2023-01-07T14:12:47.499Z,3.70
2023-01-07T14:15:48.445Z,3.10
2023-01-07T14:19:01.095Z,2.78
2023-01-07T14:22:06.436Z,3.22
2023-01-07T14:24:52.317Z,2.70
2023-01-07T14:27:40.206Z,4.40
2023-01-07T14:30:21.195Z,2.30
2023-01-07T14:32:57.796Z,2.60
2023-01-07T14:35:32.783Z,2.60
2023-01-07T14:38:01.297Z,2.15
2023-01-07T14:41:09.383Z,4.18
2023-01-07T14:44:02.768Z,3.92
2023-01-07T14:46:51.162Z,4.63
2023-01-07T14:49:53.820Z,15.30
2023-01-07T14:52:50.127Z,6.78
2023-01-07T14:55:48.637Z,3.50
2023-01-07T14:58:37.663Z,6.38
2023-01-07T15:01:26.149Z,5.80
2023-01-07T15:04:05.931Z,12.30
2023-01-07T15:06:39.324Z,5.68
2023-01-07T15:09:29.301Z,2.63
2023-01-07T15:12:18.794Z,2.58
2023-01-07T15:15:07.939Z,2.78
2023-01-07T15:17:40.082Z,7.72
2023-01-07T15:20:10.260Z,2.67
2023-01-07T15:22:56.844Z,5.18
2023-01-07T15:25:39.966Z,11.00
2023-01-07T15:28:20.399Z,7.70
2023-01-07T15:30:57.126Z,2.90
2023-01-07T15:33:58.403Z,4.25
2023-01-07T15:36:27.148Z,2.90
2023-01-07T15:38:58.898Z,4.07
2023-01-07T15:41:31.072Z,11.35
2023-01-07T15:44:00.417Z,3.22
2023-01-07T15:46:29.455Z,3.20
2023-01-07T15:49:15.316Z,2.63
2023-01-07T15:51:45.063Z,3.28
2023-01-07T15:54:32.302Z,2.83
2023-01-07T15:57:03.948Z,2.78
2023-01-07T15:59:34.127Z,2.33
2023-01-07T16:02:08.123Z,2.67
2023-01-07T16:04:38.778Z,2.72
2023-01-07T16:07:06.631Z,2.85
2023-01-07T16:09:36.697Z,2.58
2023-01-07T16:12:20.738Z,2.70
2023-01-07T16:14:48.655Z,3.00
2023-01-07T16:17:17.026Z,2.55
2023-01-07T16:19:44.912Z,2.72
2023-01-07T16:22:16.828Z,2.65
2023-01-07T16:24:54.365Z,2.83
2023-01-07T16:27:29.870Z,3.00
2023-01-07T16:30:01.702Z,3.78
2023-01-07T16:32:29.887Z,3.53
2023-01-07T16:35:03.048Z,3.25
2023-01-07T16:37:35.103Z,5.30
2023-01-07T16:40:04.963Z,7.00
2023-01-07T16:42:32.925Z,3.53
2023-01-07T16:45:03.923Z,2.90
2023-01-07T16:47:33.667Z,10.65
2023-01-07T16:50:32.031Z,3.60
2023-01-07T16:52:59.877Z,4.70
2023-01-07T16:55:48.761Z,4.53
2023-01-07T16:58:19.034Z,4.80
2023-01-07T17:00:53.510Z,5.22
2023-01-07T17:03:47.674Z,7.43
2023-01-07T17:06:16.265Z,8.20
2023-01-07T17:08:51.605Z,7.03
2023-01-07T17:11:30.203Z,5.57
2023-01-07T17:13:58.059Z,5.03
2023-01-07T17:16:29.663Z,8.25
2023-01-07T17:18:59.454Z,12.30
2023-01-07T17:21:42.049Z,20.92
2023-01-07T17:24:37.800Z,6.72
2023-01-07T17:27:12.526Z,12.50
2023-01-07T17:29:42.039Z,7.70
2023-01-07T17:32:12.841Z,4.88
2023-01-07T17:34:40.593Z,5.97
2023-01-07T17:37:14.606Z,4.90
2023-01-07T17:39:43.395Z,7.50
2023-01-07T17:42:40.263Z,10.13
2023-01-07T17:45:09.783Z,8.70
2023-01-07T17:47:41.936Z,10.13
2023-01-07T17:50:12.723Z,29.13
2023-01-07T17:52:41.915Z,7.97
2023-01-07T17:55:18.700Z,14.40
2023-01-07T17:57:48.582Z,14.27
2023-01-07T18:00:20.097Z,5.60
2023-01-07T18:02:52.057Z,10.02
2023-01-07T18:05:21.883Z,10.27
2023-01-07T18:07:53.883Z,8.30
2023-01-07T18:10:27.307Z,17.13
2023-01-07T18:12:55.866Z,12.90
2023-01-07T18:15:25.893Z,8.70
2023-01-07T18:17:54.526Z,4.63
2023-01-07T18:20:24.129Z,8.55
2023-01-07T18:22:52.156Z,12.25
2023-01-07T18:25:28.789Z,13.95
2023-01-07T18:27:59.942Z,6.68
2023-01-07T18:30:27.902Z,9.30
2023-01-07T18:33:04.179Z,11.20
2023-01-07T18:35:34.738Z,12.50
2023-01-07T18:38:04.853Z,5.53
2023-01-07T18:40:33.972Z,6.55
2023-01-07T18:43:03.459Z,12.38
2023-01-07T18:45:31.460Z,18.02
2023-01-07T18:47:59.583Z,5.93
2023-01-07T18:50:27.505Z,6.05
2023-01-07T18:52:55.246Z,9.50
2023-01-07T18:55:23.083Z,4.07
2023-01-07T18:57:50.873Z,4.32
2023-01-07T19:00:20.621Z,6.63
2023-01-07T19:02:48.506Z,5.78
2023-01-07T19:05:16.802Z,4.55
2023-01-07T19:07:45.181Z,10.40
2023-01-07T19:10:13.224Z,6.32
2023-01-07T19:12:41.098Z,7.03
2023-01-07T19:15:10.154Z,5.45
2023-01-07T19:17:39.521Z,6.80
2023-01-07T19:20:08.941Z,5.60
2023-01-07T19:22:36.900Z,5.57
2023-01-07T19:25:05.151Z,5.30
2023-01-07T19:27:32.938Z,5.47
2023-01-07T19:30:01.005Z,8.32
2023-01-07T19:32:30.356Z,5.60
2023-01-07T19:34:59.599Z,4.70
2023-01-07T19:37:27.612Z,4.72
2023-01-07T19:39:55.414Z,5.30
2023-01-07T19:42:23.274Z,4.97
2023-01-07T19:44:51.333Z,5.47
2023-01-07T19:47:19.072Z,8.68
2023-01-07T19:49:46.837Z,5.03
2023-01-07T19:52:16.090Z,5.55
2023-01-07T19:54:47.226Z,4.65
2023-01-07T19:57:15.021Z,4.50
2023-01-07T19:59:43.432Z,5.00
2023-01-07T20:02:13.891Z,4.50
2023-01-07T20:04:43.114Z,5.25
2023-01-07T20:07:11.166Z,4.82
2023-01-07T20:09:40.598Z,4.63
2023-01-07T20:12:08.659Z,4.38
2023-01-07T20:14:37.344Z,4.90
2023-01-07T20:17:05.261Z,4.13
2023-01-07T20:19:33.356Z,5.80
2023-01-07T20:22:01.226Z,5.82
2023-01-07T20:24:29.897Z,5.60
2023-01-07T20:26:59.830Z,5.03
2023-01-07T20:29:28.671Z,6.75
2023-01-07T20:31:56.786Z,4.18
2023-01-07T20:34:27.027Z,4.10
2023-01-07T20:36:55.220Z,4.35
2023-01-07T20:39:23.558Z,4.53
2023-01-07T20:41:51.870Z,4.97
2023-01-07T20:44:21.846Z,4.68
2023-01-07T20:46:50.277Z,4.22
2023-01-07T20:49:19.755Z,4.60
2023-01-07T20:51:48.098Z,4.72
2023-01-07T20:54:15.944Z,4.10
2023-01-07T20:56:45.345Z,5.00
2023-01-07T20:59:16.187Z,5.57
2023-01-07T21:01:45.673Z,5.25
2023-01-07T21:04:14.036Z,5.00
2023-01-07T21:06:42.116Z,5.30
2023-01-07T21:09:11.806Z,5.78
2023-01-07T21:11:40.723Z,6.68
2023-01-07T21:14:08.814Z,7.68
2023-01-07T21:16:37.665Z,7.85
2023-01-07T21:19:07.783Z,6.93
2023-01-07T21:21:35.640Z,8.73
2023-01-07T21:24:03.757Z,8.63
2023-01-07T21:26:34.231Z,10.82
2023-01-07T21:29:03.097Z,8.77
2023-01-07T21:31:31.192Z,9.18
2023-01-07T21:33:59.456Z,10.68
2023-01-07T21:36:29.693Z,7.97
2023-01-07T21:38:59.541Z,8.02
2023-01-07T21:41:28.069Z,8.32
2023-01-07T21:43:56.300Z,8.43
2023-01-07T21:46:24.412Z,6.90
2023-01-07T21:48:52.902Z,6.30
2023-01-07T21:51:23.390Z,5.97
2023-01-07T21:53:55.980Z,5.85
2023-01-07T21:56:24.949Z,5.80
2023-01-07T21:58:53.156Z,5.22
2023-01-07T22:01:21.491Z,5.65
2023-01-07T22:03:51.027Z,6.18
2023-01-07T22:06:21.472Z,6.30
2023-01-07T22:08:49.788Z,7.30
2023-01-07T22:11:19.492Z,7.18
2023-01-07T22:13:51.693Z,8.02
2023-01-07T22:16:20.157Z,7.70
2023-01-07T22:18:48.076Z,7.68
2023-01-07T22:21:16.895Z,7.68
2023-01-07T22:23:45.988Z,9.70
2023-01-07T22:26:15.304Z,10.80
2023-01-07T22:28:55.246Z,9.05
2023-01-07T22:31:25.308Z,7.55
2023-01-07T22:33:53.676Z,6.22
2023-01-07T22:36:28.231Z,5.25
2023-01-07T22:38:58.432Z,6.13
2023-01-07T22:41:28.220Z,6.30
2023-01-07T22:43:59.291Z,5.70
2023-01-07T22:46:29.880Z,6.30
2023-01-07T22:48:58.890Z,6.70
2023-01-07T22:51:31.165Z,5.47
2023-01-07T22:54:01.418Z,5.80
2023-01-07T22:56:29.396Z,6.00
2023-01-07T22:58:58.605Z,5.85
2023-01-07T23:01:26.428Z,5.10
2023-01-07T23:03:54.301Z,5.85
2023-01-07T23:06:22.692Z,7.60
2023-01-07T23:08:50.572Z,9.75
2023-01-07T23:11:32.218Z,9.30
2023-01-07T23:14:01.385Z,11.02
2023-01-07T23:16:29.400Z,12.27
2023-01-07T23:18:57.534Z,11.43
2023-01-07T23:21:25.377Z,8.95
2023-01-07T23:23:53.132Z,9.52
2023-01-07T23:26:20.907Z,7.63
2023-01-07T23:28:48.694Z,8.50
2023-01-07T23:31:17.900Z,7.97
2023-01-07T23:33:45.842Z,6.90
2023-01-07T23:36:13.665Z,6.85
2023-01-07T23:38:41.596Z,6.53
2023-01-07T23:41:11.535Z,6.93
2023-01-07T23:43:39.379Z,6.53
2023-01-07T23:46:08.932Z,6.60
2023-01-07T23:48:39.518Z,6.82
2023-01-07T23:51:09.289Z,6.75
2023-01-07T23:53:37.847Z,6.60
2023-01-07T23:56:06.807Z,6.40
2023-01-07T23:58:35.071Z,6.72
